createdAt,value
2022-12-07T00:02:15.892Z,19.92
2022-12-07T00:07:17.375Z,16.80
2022-12-07T00:12:18.798Z,16.48
2022-12-07T00:17:20.212Z,14.70
2022-12-07T00:22:21.663Z,14.25
2022-12-07T00:27:23.084Z,11.50
2022-12-07T00:32:24.506Z,11.73
2022-12-07T00:37:25.931Z,12.20
2022-12-07T00:42:27.383Z,10.82
2022-12-07T00:47:28.802Z,10.00
2022-12-07T00:52:30.244Z,9.50
2022-12-07T00:57:31.687Z,11.95
2022-12-07T01:02:33.110Z,12.20
2022-12-07T01:07:34.597Z,10.55
2022-12-07T01:12:36.058Z,9.95
2022-12-07T01:17:37.470Z,14.27
2022-12-07T01:22:38.918Z,7.50
2022-12-07T01:27:40.342Z,6.30
2022-12-07T01:32:41.763Z,6.63
2022-12-07T01:37:43.213Z,6.32
2022-12-07T01:42:44.666Z,5.95
2022-12-07T01:47:46.116Z,5.65
2022-12-07T01:52:47.567Z,5.90
2022-12-07T01:57:49.016Z,6.75
2022-12-07T02:02:50.570Z,4.78
2022-12-07T02:07:52.079Z,4.75
2022-12-07T02:12:53.530Z,4.63
2022-12-07T02:17:54.983Z,7.68
2022-12-07T02:22:56.434Z,6.18
2022-12-07T02:27:57.900Z,4.43
2022-12-07T02:32:59.360Z,4.18
2022-12-07T02:38:00.785Z,5.43
2022-12-07T02:43:02.236Z,4.57
2022-12-07T02:48:03.671Z,4.50
2022-12-07T02:53:05.091Z,5.95
2022-12-07T02:58:06.505Z,4.15
2022-12-07T03:03:07.986Z,4.80
2022-12-07T03:08:09.564Z,5.75
2022-12-07T03:13:11.094Z,5.35
2022-12-07T03:18:12.517Z,5.30
2022-12-07T03:23:13.968Z,5.75
2022-12-07T03:28:15.422Z,8.02
2022-12-07T03:33:16.880Z,6.07
2022-12-07T03:38:18.305Z,6.50
2022-12-07T03:43:19.722Z,6.85
2022-12-07T03:48:21.178Z,5.28
2022-12-07T03:53:22.593Z,6.50
2022-12-07T03:58:24.009Z,8.63
2022-12-07T04:03:25.483Z,6.43
2022-12-07T04:08:26.965Z,5.95
2022-12-07T04:13:28.397Z,4.15
2022-12-07T04:18:29.846Z,4.65
2022-12-07T04:23:31.298Z,3.45
2022-12-07T04:28:32.756Z,4.25
2022-12-07T04:33:34.185Z,4.55
2022-12-07T04:38:35.632Z,5.22
2022-12-07T04:43:37.055Z,6.40
2022-12-07T04:48:38.512Z,8.15
2022-12-07T04:53:39.946Z,7.15
2022-12-07T04:58:41.393Z,7.97
2022-12-07T05:03:42.818Z,7.35
2022-12-07T05:08:44.229Z,8.15
2022-12-07T05:13:45.682Z,8.23
2022-12-07T05:18:47.139Z,9.88
2022-12-07T05:23:48.596Z,9.05
2022-12-07T05:28:50.028Z,10.55
2022-12-07T05:33:51.442Z,14.43
2022-12-07T05:38:52.859Z,18.10
2022-12-07T05:43:54.281Z,20.63
2022-12-07T05:48:56.772Z,17.13
2022-12-07T05:53:58.226Z,22.95
2022-12-07T05:58:59.688Z,25.33
2022-12-07T06:04:01.109Z,23.10
2022-12-07T06:09:02.539Z,29.58
2022-12-07T06:14:04.003Z,24.88
2022-12-07T06:19:05.438Z,27.42
2022-12-07T06:24:06.916Z,29.90
2022-12-07T06:29:08.371Z,32.13
2022-12-07T06:34:09.822Z,30.33
2022-12-07T06:39:11.387Z,29.27
2022-12-07T06:44:12.868Z,27.70
2022-12-07T06:49:14.295Z,27.38
2022-12-07T06:54:15.737Z,32.70
2022-12-07T06:59:17.157Z,30.35
2022-12-07T07:04:18.597Z,28.45
2022-12-07T07:09:20.053Z,27.77
2022-12-07T07:14:21.549Z,23.55
2022-12-07T07:19:22.977Z,26.92
2022-12-07T07:24:24.398Z,25.73
2022-12-07T07:29:25.825Z,30.73
2022-12-07T07:34:27.253Z,30.02
2022-12-07T07:39:28.677Z,28.73
2022-12-07T07:44:35.075Z,24.60
2022-12-07T07:49:36.987Z,38.63
2022-12-07T07:54:38.419Z,39.83
2022-12-07T07:59:39.939Z,35.78
2022-12-07T08:04:42.349Z,30.20
2022-12-07T08:14:59.855Z,31.45
2022-12-07T08:20:01.641Z,31.13
2022-12-07T08:25:03.278Z,30.17
2022-12-07T08:30:04.976Z,28.83
2022-12-07T08:35:06.721Z,30.38
2022-12-07T08:40:08.170Z,29.02
2022-12-07T08:45:09.635Z,24.27
2022-12-07T08:50:11.125Z,29.80
2022-12-07T08:55:12.743Z,31.17
2022-12-07T09:00:14.198Z,29.65
2022-12-07T09:05:17.026Z,38.05
2022-12-07T09:10:18.646Z,41.67
2022-12-07T09:15:20.128Z,26.60
2022-12-07T09:20:27.349Z,25.20
2022-12-07T09:25:29.411Z,22.35
2022-12-07T09:30:30.917Z,18.33
2022-12-07T09:35:32.377Z,16.92
2022-12-07T09:40:34.018Z,16.60
2022-12-07T09:45:35.462Z,14.80
2022-12-07T09:50:36.929Z,16.65
2022-12-07T09:55:38.346Z,18.67
2022-12-07T10:00:39.974Z,16.45
2022-12-07T10:05:41.474Z,17.17
2022-12-07T10:10:42.996Z,15.68
2022-12-07T10:15:44.509Z,13.48
2022-12-07T10:20:46.039Z,12.95
2022-12-07T10:25:47.546Z,11.35
2022-12-07T10:30:49.059Z,17.52
2022-12-07T10:35:50.543Z,13.27
2022-12-07T10:40:52.086Z,17.35
2022-12-07T10:46:13.089Z,12.63
2022-12-07T10:51:15.174Z,12.52
2022-12-07T10:56:16.676Z,7.57
2022-12-07T11:01:18.210Z,9.02
2022-12-07T11:06:19.745Z,6.90
2022-12-07T11:11:21.251Z,10.15
2022-12-07T11:16:22.863Z,10.55
2022-12-07T11:21:24.380Z,8.57
2022-12-07T11:26:25.885Z,10.10
2022-12-07T11:31:29.482Z,9.25
2022-12-07T11:36:31.386Z,7.90
2022-12-07T11:41:33.013Z,10.75
2022-12-07T11:46:34.491Z,7.38
2022-12-07T11:51:35.987Z,8.70
2022-12-07T11:56:37.452Z,7.07
2022-12-07T12:01:39.042Z,7.22
2022-12-07T12:06:40.549Z,8.32
2022-12-07T12:11:42.153Z,12.07
2022-12-07T12:16:43.718Z,7.80
2022-12-07T12:21:45.264Z,8.88
2022-12-07T12:26:46.823Z,10.15
2022-12-07T12:31:48.481Z,11.75
2022-12-07T12:36:50.091Z,11.32
2022-12-07T12:41:51.673Z,8.50
2022-12-07T12:46:53.315Z,10.43
2022-12-07T12:51:54.837Z,12.77
2022-12-07T12:56:56.311Z,9.93
2022-12-07T13:01:58.016Z,10.57
2022-12-07T13:06:59.575Z,8.93
2022-12-07T13:12:01.102Z,13.75
2022-12-07T13:17:02.761Z,14.25
2022-12-07T13:22:04.484Z,14.23
2022-12-07T13:27:06.013Z,10.60
2022-12-07T13:32:08.683Z,12.50
2022-12-07T13:37:10.193Z,10.85
2022-12-07T13:42:11.744Z,12.95
2022-12-07T13:47:13.173Z,10.32
2022-12-07T13:52:14.653Z,8.75
2022-12-07T13:57:16.118Z,11.02
2022-12-07T14:02:21.187Z,10.50
2022-12-07T14:07:23.023Z,12.32
2022-12-07T14:12:24.551Z,13.68
2022-12-07T14:17:26.084Z,11.85
2022-12-07T14:22:27.713Z,14.30
2022-12-07T14:27:29.343Z,10.93
2022-12-07T14:32:30.837Z,11.60
2022-12-07T14:37:32.328Z,12.65
2022-12-07T14:42:33.851Z,14.32
2022-12-07T14:58:18.445Z,10.30
2022-12-07T15:03:20.015Z,11.10
2022-12-07T15:08:21.572Z,13.13
2022-12-07T15:13:23.106Z,17.52
2022-12-07T15:18:24.590Z,17.05
2022-12-07T15:23:26.170Z,23.88
2022-12-07T15:28:27.979Z,20.48
2022-12-07T15:33:29.474Z,18.63
2022-12-07T15:39:05.240Z,17.15
2022-12-07T15:43:52.613Z,15.02
2022-12-07T15:48:54.222Z,17.83
2022-12-07T15:53:55.846Z,12.80
2022-12-07T15:58:57.408Z,13.25
2022-12-07T16:03:58.998Z,11.15
2022-12-07T16:09:00.592Z,14.75
2022-12-07T16:14:02.202Z,11.43
2022-12-07T16:19:03.728Z,13.40
2022-12-07T16:24:05.215Z,15.15
2022-12-07T16:29:06.853Z,12.07
2022-12-07T16:34:08.364Z,17.00
2022-12-07T16:39:09.995Z,16.73
2022-12-07T16:44:11.597Z,12.15
2022-12-07T16:49:13.039Z,14.18
2022-12-07T16:54:14.537Z,16.30
2022-12-07T16:59:16.048Z,18.80
2022-12-07T17:04:17.728Z,18.25
2022-12-07T17:09:21.440Z,18.80
2022-12-07T17:14:23.256Z,13.13
2022-12-07T17:19:24.886Z,15.30
2022-12-07T17:24:26.391Z,11.48
2022-12-07T17:29:28.051Z,9.95
2022-12-07T17:34:29.555Z,11.80
2022-12-07T17:39:31.044Z,12.65
2022-12-07T17:44:32.517Z,12.20
2022-12-07T17:49:34.054Z,14.00
2022-12-07T17:54:35.678Z,14.82
2022-12-07T17:59:37.339Z,19.70
2022-12-07T18:04:38.882Z,15.77
2022-12-07T18:09:40.521Z,13.60
2022-12-07T18:14:42.059Z,11.50
2022-12-07T18:19:43.550Z,19.83
2022-12-07T18:24:45.031Z,12.88
2022-12-07T18:29:46.666Z,11.63
2022-12-07T18:34:48.298Z,10.88
2022-12-07T18:39:49.956Z,9.68
2022-12-07T18:44:51.641Z,15.73
2022-12-07T18:49:53.287Z,12.27
2022-12-07T18:54:54.747Z,17.90
2022-12-07T18:59:56.320Z,16.95
2022-12-07T19:04:57.991Z,16.38
2022-12-07T19:09:59.814Z,15.65
2022-12-07T19:15:01.590Z,13.77
2022-12-07T19:20:03.455Z,17.25
2022-12-07T19:25:05.412Z,11.98
2022-12-07T19:30:07.131Z,12.93
2022-12-07T19:35:08.675Z,14.95
2022-12-07T19:40:10.175Z,13.15
2022-12-07T19:45:11.661Z,19.88
2022-12-07T19:50:13.301Z,26.92
2022-12-07T19:55:14.797Z,25.10
2022-12-07T20:00:16.302Z,22.17
2022-12-07T20:05:17.822Z,18.50
2022-12-07T20:10:24.478Z,15.00
2022-12-07T20:15:27.599Z,16.83
2022-12-07T20:20:29.236Z,16.83
2022-12-07T20:25:30.756Z,18.92
2022-12-07T20:30:32.324Z,12.02
2022-12-07T20:35:33.875Z,13.43
2022-12-07T20:40:35.391Z,14.35
2022-12-07T20:45:36.893Z,12.27
2022-12-07T20:50:42.180Z,9.40
2022-12-07T20:55:44.067Z,10.27
2022-12-07T21:00:45.719Z,14.02
2022-12-07T21:05:50.709Z,17.30
2022-12-07T21:10:52.782Z,17.75
2022-12-07T21:15:54.285Z,15.52
2022-12-07T21:20:55.941Z,11.90
2022-12-07T21:25:57.608Z,13.88
2022-12-07T21:31:14.779Z,10.88
2022-12-07T21:36:16.375Z,16.58
2022-12-07T21:41:17.857Z,13.27
2022-12-07T21:46:19.621Z,11.82
2022-12-07T21:51:21.135Z,12.20
2022-12-07T21:56:22.727Z,9.65
2022-12-07T22:01:26.540Z,14.90
2022-12-07T22:06:28.418Z,17.75
2022-12-07T22:11:30.268Z,13.50
2022-12-07T22:16:31.925Z,14.70
2022-12-07T22:21:33.532Z,16.02
2022-12-07T22:26:35.093Z,12.98
2022-12-07T22:31:36.952Z,11.75
2022-12-07T22:36:38.659Z,12.63
2022-12-07T22:41:40.441Z,14.73
2022-12-07T22:46:42.045Z,14.43
2022-12-07T22:51:43.597Z,14.15
2022-12-07T22:56:45.172Z,14.13
2022-12-07T23:01:46.672Z,19.73
2022-12-07T23:06:48.279Z,12.63
2022-12-07T23:11:49.864Z,18.33
2022-12-07T23:16:51.724Z,15.98
2022-12-07T23:21:53.373Z,19.45
2022-12-07T23:26:55.692Z,12.95
2022-12-07T23:31:57.643Z,14.95
2022-12-07T23:37:00.963Z,12.65
2022-12-07T23:42:02.604Z,15.95
2022-12-07T23:47:04.365Z,13.68
2022-12-07T23:52:05.878Z,15.32
2022-12-07T23:57:07.638Z,10.70
